createdAt,value
2019-01-14T00:02:22.351Z,6.60
2019-01-14T00:04:55.465Z,6.30
2019-01-14T00:07:18.939Z,6.30
2019-01-14T00:09:46.669Z,6.30
2019-01-14T00:12:14.054Z,6.10
2019-01-14T00:14:41.457Z,6.30
2019-01-14T00:17:09.191Z,6.30
2019-01-14T00:19:36.587Z,6.00
2019-01-14T00:22:05.744Z,6.10
2019-01-14T00:24:33.199Z,6.10
2019-01-14T00:27:00.587Z,6.10
2019-01-14T00:29:27.972Z,6.10
2019-01-14T00:31:55.524Z,6.00
2019-01-14T00:34:23.413Z,5.90
2019-01-14T00:36:50.804Z,5.80
2019-01-14T00:39:18.230Z,5.80
2019-01-14T00:41:45.607Z,5.70
2019-01-14T00:44:12.987Z,5.70
2019-01-14T00:46:40.411Z,5.80
2019-01-14T00:49:07.795Z,6.10
2019-01-14T00:51:35.443Z,5.90
2019-01-14T00:54:03.479Z,5.90
2019-01-14T00:56:30.918Z,6.00
2019-01-14T00:58:58.321Z,5.90
2019-01-14T01:01:26.939Z,5.80
2019-01-14T01:03:54.339Z,5.80
2019-01-14T01:06:24.688Z,5.80
2019-01-14T01:08:51.159Z,5.60
2019-01-14T01:11:18.690Z,5.70
2019-01-14T01:13:46.084Z,5.70
2019-01-14T01:16:13.761Z,5.70
2019-01-14T01:18:42.419Z,5.60
2019-01-14T01:21:09.949Z,5.60
2019-01-14T01:23:37.558Z,5.60
2019-01-14T01:26:04.966Z,5.50
2019-01-14T01:28:32.363Z,5.50
2019-01-14T01:30:59.939Z,5.40
2019-01-14T01:33:28.596Z,5.40
2019-01-14T01:35:56.133Z,5.20
2019-01-14T01:38:23.767Z,5.20
2019-01-14T01:40:51.151Z,5.20
2019-01-14T01:43:18.539Z,5.10
2019-01-14T01:45:46.011Z,5.00
2019-01-14T01:48:13.423Z,5.00
2019-01-14T01:50:40.911Z,5.00
2019-01-14T01:53:08.433Z,4.90
2019-01-14T01:55:36.415Z,4.80
2019-01-14T01:58:03.906Z,4.70
2019-01-14T02:00:31.644Z,4.60
2019-01-14T02:02:59.102Z,4.60
2019-01-14T02:05:26.492Z,4.60
2019-01-14T02:07:55.891Z,4.50
2019-01-14T02:10:23.270Z,4.50
2019-01-14T02:12:50.732Z,4.40
2019-01-14T02:15:18.963Z,4.40
2019-01-14T02:17:46.676Z,4.30
2019-01-14T02:20:15.134Z,4.30
2019-01-14T02:22:42.588Z,4.20
2019-01-14T02:25:12.596Z,4.20
2019-01-14T02:27:39.979Z,4.20
2019-01-14T02:30:10.907Z,4.10
2019-01-14T02:32:38.295Z,4.20
2019-01-14T02:35:07.094Z,4.10
2019-01-14T02:37:34.723Z,4.20
2019-01-14T02:40:02.138Z,4.10
2019-01-14T02:42:29.529Z,4.10
2019-01-14T02:44:56.963Z,4.10
2019-01-14T02:47:24.359Z,4.10
2019-01-14T02:49:51.747Z,4.10
2019-01-14T02:52:19.377Z,4.10
2019-01-14T02:54:46.774Z,4.10
2019-01-14T02:57:14.478Z,4.10
2019-01-14T02:59:42.199Z,4.10
2019-01-14T03:02:09.577Z,4.10
2019-01-14T03:04:38.767Z,4.00
2019-01-14T03:07:06.227Z,4.00
2019-01-14T03:09:33.606Z,4.00
2019-01-14T03:12:00.999Z,4.00
2019-01-14T03:14:28.454Z,4.00
2019-01-14T03:16:55.840Z,4.00
2019-01-14T03:19:23.283Z,3.90
2019-01-14T03:21:50.835Z,3.90
2019-01-14T03:24:19.449Z,3.90
2019-01-14T03:26:46.833Z,4.10
2019-01-14T03:29:14.262Z,4.10
2019-01-14T03:31:41.652Z,4.20
2019-01-14T03:34:09.048Z,4.30
2019-01-14T03:36:36.491Z,4.20
2019-01-14T03:39:06.113Z,4.20
2019-01-14T03:41:33.502Z,4.30
2019-01-14T03:44:00.971Z,4.30
2019-01-14T03:46:28.362Z,4.30
2019-01-14T03:48:55.750Z,4.30
2019-01-14T03:51:23.299Z,4.20
2019-01-14T03:53:50.868Z,4.10
2019-01-14T03:56:18.558Z,4.10
2019-01-14T03:58:46.267Z,4.00
2019-01-14T04:01:13.659Z,4.00
2019-01-14T04:03:41.051Z,4.00
2019-01-14T04:06:08.490Z,4.00
2019-01-14T04:08:35.872Z,4.00
2019-01-14T04:11:03.279Z,4.00
2019-01-14T04:13:30.742Z,4.00
2019-01-14T04:15:58.159Z,4.10
2019-01-14T04:18:25.550Z,4.10
2019-01-14T04:20:52.972Z,4.10
2019-01-14T04:23:20.364Z,4.00
2019-01-14T04:25:47.766Z,4.00
2019-01-14T04:28:15.179Z,4.00
2019-01-14T04:30:42.565Z,4.00
2019-01-14T04:33:09.940Z,4.10
2019-01-14T04:35:37.517Z,4.10
2019-01-14T04:38:05.118Z,4.20
2019-01-14T04:40:32.492Z,4.20
2019-01-14T04:43:00.117Z,4.40
2019-01-14T04:45:27.505Z,4.40
2019-01-14T04:47:54.899Z,4.20
2019-01-14T04:50:22.447Z,4.20
2019-01-14T04:52:50.380Z,4.10
2019-01-14T04:55:18.291Z,4.10
2019-01-14T04:57:45.734Z,4.20
2019-01-14T05:00:16.142Z,4.10
2019-01-14T05:02:43.539Z,4.20
2019-01-14T05:05:11.195Z,4.10
2019-01-14T05:07:38.583Z,4.20
2019-01-14T05:10:07.675Z,4.10
2019-01-14T05:12:35.220Z,4.20
2019-01-14T05:15:02.825Z,4.30
2019-01-14T05:17:30.252Z,4.30
2019-01-14T05:19:57.675Z,4.30
2019-01-14T05:22:25.068Z,4.40
2019-01-14T05:24:52.455Z,4.40
2019-01-14T05:27:20.260Z,4.40
2019-01-14T05:29:47.654Z,4.50
2019-01-14T05:32:15.062Z,4.40
2019-01-14T05:34:42.501Z,4.50
2019-01-14T05:37:09.900Z,4.40
2019-01-14T05:39:37.291Z,4.50
2019-01-14T05:42:04.734Z,4.40
2019-01-14T05:44:32.118Z,4.40
2019-01-14T05:46:59.495Z,4.40
2019-01-14T05:49:26.923Z,4.30
2019-01-14T05:51:54.416Z,4.30
2019-01-14T05:54:22.059Z,4.30
2019-01-14T05:56:49.643Z,4.20
2019-01-14T05:59:17.043Z,4.10
2019-01-14T06:01:44.436Z,4.10
2019-01-14T06:04:12.008Z,4.10
2019-01-14T06:06:39.299Z,4.10
2019-01-14T06:09:07.063Z,4.00
2019-01-14T06:11:34.494Z,4.00
2019-01-14T06:14:01.958Z,4.10
2019-01-14T06:16:29.352Z,4.00
2019-01-14T06:18:56.763Z,4.00
2019-01-14T06:21:24.174Z,4.10
2019-01-14T06:23:51.563Z,4.00
2019-01-14T06:26:18.993Z,4.00
2019-01-14T06:28:46.387Z,4.00
2019-01-14T06:31:13.782Z,3.90
2019-01-14T06:33:41.345Z,3.80
2019-01-14T06:36:08.718Z,3.80
2019-01-14T06:38:36.111Z,3.80
2019-01-14T06:41:03.547Z,3.80
2019-01-14T06:43:30.950Z,3.80
2019-01-14T06:45:58.347Z,3.90
2019-01-14T06:48:25.806Z,3.90
2019-01-14T06:50:53.191Z,3.90
2019-01-14T06:53:20.847Z,3.90
2019-01-14T06:55:48.574Z,3.90
2019-01-14T06:58:15.971Z,3.90
2019-01-14T07:00:43.376Z,3.90
2019-01-14T07:03:10.883Z,3.90
2019-01-14T07:05:38.276Z,3.90
2019-01-14T07:08:05.669Z,3.90
2019-01-14T07:10:33.285Z,3.80
2019-01-14T07:13:00.754Z,3.80
2019-01-14T07:15:28.314Z,3.80
2019-01-14T07:17:55.778Z,3.80
2019-01-14T07:20:23.172Z,3.80
2019-01-14T07:22:50.572Z,3.80
2019-01-14T07:25:18.162Z,3.70
2019-01-14T07:27:45.556Z,3.70
2019-01-14T07:30:15.252Z,3.70
2019-01-14T07:32:42.809Z,3.70
2019-01-14T07:35:10.414Z,3.60
2019-01-14T07:37:37.794Z,3.60
2019-01-14T07:40:06.884Z,3.60
2019-01-14T07:42:34.286Z,3.60
2019-01-14T07:45:01.702Z,3.60
2019-01-14T07:47:29.299Z,3.60
2019-01-14T07:49:56.734Z,3.70
2019-01-14T07:52:24.136Z,3.70
2019-01-14T07:54:51.566Z,3.70
2019-01-14T07:57:19.571Z,3.70
2019-01-14T07:59:46.971Z,3.80
2019-01-14T08:02:14.473Z,3.70
2019-01-14T08:04:41.859Z,3.80
2019-01-14T08:07:09.251Z,3.70
2019-01-14T08:09:36.752Z,3.70
2019-01-14T08:12:04.265Z,3.70
2019-01-14T08:14:31.654Z,3.70
2019-01-14T08:16:59.093Z,3.70
2019-01-14T08:19:28.358Z,3.70
2019-01-14T08:21:55.763Z,3.80
2019-01-14T08:24:23.150Z,3.70
2019-01-14T08:26:50.740Z,3.80
2019-01-14T08:29:18.123Z,3.80
2019-01-14T08:31:45.585Z,3.90
2019-01-14T08:34:13.228Z,3.90
2019-01-14T08:36:40.843Z,3.90
2019-01-14T08:39:08.239Z,3.80
2019-01-14T08:41:36.683Z,3.80
2019-01-14T08:44:07.075Z,3.90
2019-01-14T08:46:34.562Z,3.90
2019-01-14T08:49:02.102Z,3.90
2019-01-14T08:51:29.486Z,3.90
2019-01-14T08:53:57.619Z,4.00
2019-01-14T08:56:25.017Z,4.00
2019-01-14T08:58:52.411Z,4.00
2019-01-14T09:01:20.022Z,4.00
2019-01-14T09:03:47.427Z,4.10
2019-01-14T09:06:14.827Z,4.00
2019-01-14T09:08:42.515Z,4.10
2019-01-14T09:11:09.904Z,4.10
2019-01-14T09:13:37.299Z,4.10
2019-01-14T09:16:04.999Z,4.10
2019-01-14T09:18:32.385Z,4.00
2019-01-14T09:20:59.774Z,4.00
2019-01-14T09:23:27.250Z,4.00
2019-01-14T09:25:54.641Z,3.90
2019-01-14T09:28:22.035Z,4.00
2019-01-14T09:30:49.507Z,3.90
2019-01-14T09:33:16.891Z,3.80
2019-01-14T09:35:44.294Z,3.80
2019-01-14T09:38:12.062Z,3.90
2019-01-14T09:40:39.461Z,3.90
2019-01-14T09:43:06.846Z,3.70
2019-01-14T09:45:34.548Z,3.70
2019-01-14T09:48:01.939Z,3.70
2019-01-14T09:50:29.331Z,3.70
2019-01-14T09:52:56.934Z,3.70
2019-01-14T09:55:25.430Z,3.70
2019-01-14T09:57:52.819Z,3.80
2019-01-14T10:00:20.300Z,3.80
2019-01-14T10:02:47.678Z,3.80
2019-01-14T10:05:17.344Z,3.70
2019-01-14T10:07:45.082Z,3.70
2019-01-14T10:10:13.796Z,3.70
2019-01-14T10:12:41.400Z,3.80
2019-01-14T10:15:12.036Z,3.80
2019-01-14T10:17:39.954Z,3.70
2019-01-14T10:20:08.558Z,3.70
2019-01-14T10:22:36.204Z,3.70
2019-01-14T10:25:04.307Z,3.90
2019-01-14T10:27:31.704Z,3.90
2019-01-14T10:29:59.084Z,3.90
2019-01-14T10:32:26.484Z,3.90
2019-01-14T10:34:53.870Z,3.90
2019-01-14T10:37:22.910Z,3.80
2019-01-14T10:39:50.514Z,3.80
2019-01-14T10:42:17.806Z,3.80
2019-01-14T10:44:45.406Z,3.90
2019-01-14T10:47:12.796Z,3.90
2019-01-14T10:49:40.183Z,3.90
2019-01-14T10:52:07.638Z,4.00
2019-01-14T10:54:35.714Z,4.00
2019-01-14T10:57:03.118Z,4.00
2019-01-14T10:59:30.507Z,3.90
2019-01-14T11:01:57.939Z,4.00
2019-01-14T11:04:25.331Z,4.00
2019-01-14T11:06:55.447Z,3.90
2019-01-14T11:09:22.883Z,4.00
2019-01-14T11:11:50.654Z,4.00
2019-01-14T11:14:18.043Z,4.00
2019-01-14T11:16:45.468Z,4.10
2019-01-14T11:19:12.867Z,4.00
2019-01-14T11:21:40.276Z,3.90
2019-01-14T11:24:07.717Z,3.70
2019-01-14T11:26:35.111Z,3.50
2019-01-14T11:29:02.519Z,3.20
2019-01-14T11:31:29.929Z,3.00
2019-01-14T11:33:57.363Z,2.70
2019-01-14T11:36:24.757Z,2.60
2019-01-14T11:38:52.189Z,2.50
2019-01-14T11:41:21.063Z,2.40
2019-01-14T11:43:48.451Z,2.40
2019-01-14T11:46:15.895Z,2.30
2019-01-14T11:48:43.279Z,2.20
2019-01-14T11:51:10.669Z,2.30
2019-01-14T11:53:38.446Z,2.20
2019-01-14T11:56:07.297Z,2.20
2019-01-14T11:58:34.689Z,2.20
2019-01-14T12:01:02.101Z,2.10
2019-01-14T12:03:29.844Z,2.20
2019-01-14T12:05:57.227Z,2.20
2019-01-14T12:08:24.615Z,2.00
2019-01-14T12:10:52.316Z,2.10
2019-01-14T12:13:19.735Z,2.10
2019-01-14T12:15:47.143Z,2.10
2019-01-14T12:18:14.623Z,1.90
2019-01-14T12:20:42.027Z,2.00
2019-01-14T12:23:09.423Z,2.00
2019-01-14T12:25:37.095Z,2.10
2019-01-14T12:28:04.494Z,2.10
2019-01-14T12:30:37.251Z,2.10
2019-01-14T12:33:05.211Z,2.20
2019-01-14T12:35:32.606Z,2.10
2019-01-14T12:37:59.994Z,2.20
2019-01-14T12:40:27.335Z,2.30
2019-01-14T12:42:54.828Z,2.30
2019-01-14T12:45:22.539Z,2.30
2019-01-14T12:47:49.958Z,2.30
2019-01-14T12:50:19.184Z,2.20
2019-01-14T12:52:46.675Z,2.30
2019-01-14T12:55:14.709Z,2.30
2019-01-14T12:57:42.947Z,2.30
2019-01-14T13:00:13.451Z,2.30
2019-01-14T13:02:41.210Z,2.30
2019-01-14T13:05:08.880Z,2.30
2019-01-14T13:07:36.283Z,2.30
2019-01-14T13:10:05.113Z,2.30
2019-01-14T13:12:32.396Z,2.20
2019-01-14T13:14:59.794Z,2.10
2019-01-14T13:17:27.247Z,2.20
2019-01-14T13:19:54.645Z,2.10
2019-01-14T13:22:22.427Z,2.10
2019-01-14T13:24:49.863Z,2.00
2019-01-14T13:27:17.252Z,2.10
2019-01-14T13:29:44.659Z,2.20
2019-01-14T13:32:12.190Z,2.30
2019-01-14T13:34:39.607Z,2.30
2019-01-14T13:37:06.999Z,2.30
2019-01-14T13:39:34.443Z,2.30
2019-01-14T13:42:01.841Z,2.30
2019-01-14T13:44:29.230Z,2.40
2019-01-14T13:46:57.371Z,2.30
2019-01-14T13:49:24.788Z,2.30
2019-01-14T13:51:52.188Z,2.30
2019-01-14T13:54:19.757Z,2.30
2019-01-14T13:56:47.638Z,2.20
2019-01-14T13:59:15.041Z,2.20
2019-01-14T14:01:42.766Z,2.20
2019-01-14T14:04:10.155Z,2.10
2019-01-14T14:06:37.556Z,2.10
2019-01-14T14:09:07.691Z,2.10
2019-01-14T14:11:35.110Z,2.00
2019-01-14T14:14:02.610Z,1.90
2019-01-14T14:16:30.051Z,1.90
2019-01-14T14:18:57.451Z,1.90
2019-01-14T14:21:24.851Z,1.80
2019-01-14T14:23:52.279Z,1.80
2019-01-14T14:26:19.675Z,1.80
2019-01-14T14:28:47.067Z,1.70
2019-01-14T14:31:14.673Z,1.80
2019-01-14T14:33:42.068Z,1.70
2019-01-14T14:36:09.464Z,1.80
2019-01-14T14:38:37.045Z,1.70
2019-01-14T14:41:06.251Z,1.60
2019-01-14T14:43:33.655Z,1.60
2019-01-14T14:46:01.379Z,1.70
2019-01-14T14:48:28.782Z,1.70
2019-01-14T14:50:56.183Z,1.60
2019-01-14T14:53:23.867Z,1.60
2019-01-14T14:55:51.257Z,1.50
2019-01-14T14:58:19.418Z,1.50
2019-01-14T15:00:47.071Z,1.50
2019-01-14T15:03:14.462Z,1.60
2019-01-14T15:05:41.865Z,1.50
2019-01-14T15:08:09.337Z,1.50
2019-01-14T15:10:36.752Z,1.50
2019-01-14T15:13:04.355Z,1.50
2019-01-14T15:15:31.800Z,1.50
2019-01-14T15:17:59.193Z,1.60
2019-01-14T15:20:26.575Z,1.50
2019-01-14T15:22:54.133Z,1.50
2019-01-14T15:25:21.535Z,1.50
2019-01-14T15:27:48.927Z,1.50
2019-01-14T15:30:19.323Z,1.50
2019-01-14T15:32:46.726Z,1.50
2019-01-14T15:35:14.444Z,1.50
2019-01-14T15:37:41.891Z,1.50
2019-01-14T15:40:10.791Z,1.50
2019-01-14T15:42:38.190Z,1.50
2019-01-14T15:45:08.035Z,1.50
2019-01-14T15:47:35.429Z,1.40
2019-01-14T15:50:04.011Z,1.50
2019-01-14T15:52:31.452Z,1.50
2019-01-14T15:54:58.863Z,1.50
2019-01-14T15:57:26.611Z,1.50
2019-01-14T15:59:54.057Z,1.50
2019-01-14T16:02:21.446Z,1.60
2019-01-14T16:04:48.845Z,1.60
2019-01-14T16:07:16.314Z,1.60
2019-01-14T16:09:43.718Z,1.60
2019-01-14T16:12:11.158Z,1.60
2019-01-14T16:14:38.728Z,1.60
2019-01-14T16:17:06.118Z,1.60
2019-01-14T16:19:33.523Z,1.60
2019-01-14T16:22:00.994Z,1.70
2019-01-14T16:24:28.403Z,1.70
2019-01-14T16:26:55.797Z,1.70
2019-01-14T16:29:23.393Z,1.80
2019-01-14T16:31:50.778Z,1.80
2019-01-14T16:34:18.179Z,1.90
2019-01-14T16:36:45.631Z,1.90
2019-01-14T16:39:13.039Z,1.80
2019-01-14T16:41:40.454Z,1.90
2019-01-14T16:44:07.897Z,1.90
2019-01-14T16:46:35.287Z,1.90
2019-01-14T16:49:02.694Z,1.90
2019-01-14T16:51:30.247Z,1.90
2019-01-14T16:53:57.646Z,2.00
2019-01-14T16:56:25.047Z,1.90
2019-01-14T16:58:52.945Z,1.90
2019-01-14T17:01:20.518Z,2.00
2019-01-14T17:03:47.923Z,2.10
2019-01-14T17:06:15.534Z,2.10
2019-01-14T17:08:42.939Z,2.20
2019-01-14T17:11:10.331Z,2.20
2019-01-14T17:13:38.124Z,2.20
2019-01-14T17:16:05.537Z,2.20
2019-01-14T17:18:32.955Z,2.20
2019-01-14T17:21:00.513Z,2.30
2019-01-14T17:23:27.926Z,2.20
2019-01-14T17:25:55.335Z,2.20
2019-01-14T17:28:22.995Z,2.20
2019-01-14T17:30:50.403Z,2.20
2019-01-14T17:33:17.827Z,2.20
2019-01-14T17:35:45.482Z,2.20
2019-01-14T17:38:12.891Z,2.20
2019-01-14T17:40:40.329Z,2.20
2019-01-14T17:43:07.763Z,2.20
2019-01-14T17:45:35.152Z,2.30
2019-01-14T17:48:04.348Z,2.20
2019-01-14T17:50:32.886Z,2.20
2019-01-14T17:53:00.286Z,2.20
2019-01-14T17:55:27.684Z,2.20
2019-01-14T17:57:55.107Z,2.30
2019-01-14T18:00:24.636Z,2.30
2019-01-14T18:02:52.019Z,2.30
2019-01-14T18:05:19.468Z,2.40
2019-01-14T18:07:46.859Z,2.30
2019-01-14T18:10:15.611Z,2.30
2019-01-14T18:12:43.038Z,2.30
2019-01-14T18:15:10.646Z,2.30
2019-01-14T18:17:38.046Z,2.30
2019-01-14T18:20:07.339Z,2.30
2019-01-14T18:22:34.755Z,2.30
2019-01-14T18:25:02.182Z,2.40
2019-01-14T18:27:29.764Z,2.50
2019-01-14T18:29:57.186Z,2.50
2019-01-14T18:32:24.719Z,2.50
2019-01-14T18:34:52.198Z,2.50
2019-01-14T18:37:19.593Z,2.50
2019-01-14T18:39:46.998Z,2.40
2019-01-14T18:42:14.438Z,2.50
2019-01-14T18:44:42.190Z,2.40
2019-01-14T18:47:10.014Z,2.40
2019-01-14T18:49:37.684Z,2.40
2019-01-14T18:52:05.296Z,2.50
2019-01-14T18:54:34.723Z,2.50
2019-01-14T18:57:02.256Z,2.50
2019-01-14T18:59:30.114Z,2.50
2019-01-14T19:01:58.360Z,2.40
2019-01-14T19:04:26.029Z,2.50
2019-01-14T19:06:53.866Z,2.50
2019-01-14T19:09:21.667Z,2.40
2019-01-14T19:11:49.204Z,2.40
2019-01-14T19:14:16.601Z,2.50
2019-01-14T19:16:44.003Z,2.60
2019-01-14T19:19:11.463Z,2.60
2019-01-14T19:21:38.873Z,2.80
2019-01-14T19:24:06.282Z,2.80
2019-01-14T19:26:33.722Z,2.80
2019-01-14T19:29:01.132Z,2.80
2019-01-14T19:31:28.518Z,2.80
2019-01-14T19:33:56.165Z,2.80
2019-01-14T19:36:23.697Z,2.70
2019-01-14T19:38:51.158Z,2.80
2019-01-14T19:41:18.622Z,2.80
2019-01-14T19:43:46.103Z,2.80
2019-01-14T19:46:13.555Z,2.80
2019-01-14T19:48:41.149Z,2.90
2019-01-14T19:51:08.643Z,3.10
2019-01-14T19:53:36.103Z,3.10
2019-01-14T19:56:03.762Z,3.10
2019-01-14T19:58:31.446Z,3.20
2019-01-14T20:00:59.331Z,3.00
2019-01-14T20:03:26.767Z,3.10
2019-01-14T20:05:54.224Z,3.00
2019-01-14T20:08:22.542Z,3.10
2019-01-14T20:10:49.994Z,3.00
2019-01-14T20:13:17.307Z,3.00
2019-01-14T20:15:44.819Z,3.20
2019-01-14T20:18:12.265Z,3.00
2019-01-14T20:20:39.682Z,3.00
2019-01-14T20:23:07.134Z,3.00
2019-01-14T20:25:34.858Z,3.10
2019-01-14T20:28:02.257Z,3.00
2019-01-14T20:30:29.651Z,2.90
2019-01-14T20:32:57.302Z,2.90
2019-01-14T20:35:24.694Z,2.90
2019-01-14T20:37:52.096Z,2.90
2019-01-14T20:40:19.540Z,2.90
2019-01-14T20:42:47.036Z,2.90
2019-01-14T20:45:14.855Z,2.80
2019-01-14T20:47:42.309Z,2.80
2019-01-14T20:50:12.229Z,2.70
2019-01-14T20:52:39.721Z,2.70
2019-01-14T20:55:07.671Z,2.80
2019-01-14T20:57:35.163Z,2.80
2019-01-14T21:00:04.334Z,3.10
2019-01-14T21:02:32.497Z,3.30
2019-01-14T21:05:00.334Z,3.40
2019-01-14T21:07:28.382Z,3.20
2019-01-14T21:09:56.302Z,3.20
2019-01-14T21:12:23.823Z,3.20
2019-01-14T21:14:51.419Z,3.20
2019-01-14T21:17:19.102Z,3.30
2019-01-14T21:19:46.707Z,3.30
2019-01-14T21:22:14.283Z,3.30
2019-01-14T21:24:41.893Z,3.50
2019-01-14T21:27:09.395Z,3.30
2019-01-14T21:29:37.005Z,3.20
2019-01-14T21:32:04.894Z,3.20
2019-01-14T21:34:32.507Z,3.20
2019-01-14T21:37:00.126Z,3.00
2019-01-14T21:39:27.788Z,3.00
2019-01-14T21:41:55.418Z,2.90
2019-01-14T21:44:23.136Z,3.00
2019-01-14T21:46:50.659Z,2.90
2019-01-14T21:49:18.183Z,2.90
2019-01-14T21:51:45.817Z,2.90
2019-01-14T21:54:13.483Z,2.90
2019-01-14T21:56:41.099Z,2.80
2019-01-14T21:59:08.871Z,2.80
2019-01-14T22:01:36.788Z,2.80
2019-01-14T22:04:04.521Z,2.70
2019-01-14T22:06:33.121Z,2.60
2019-01-14T22:09:00.919Z,2.60
2019-01-14T22:11:29.531Z,2.60
2019-01-14T22:13:58.874Z,2.50
2019-01-14T22:16:26.539Z,2.50
2019-01-14T22:18:54.147Z,2.50
2019-01-14T22:21:21.684Z,2.50
2019-01-14T22:23:51.428Z,2.40
2019-01-14T22:26:20.844Z,2.30
2019-01-14T22:28:48.355Z,2.00
2019-01-14T22:31:18.011Z,1.90
2019-01-14T22:33:45.541Z,1.70
2019-01-14T22:36:13.054Z,1.50
2019-01-14T22:38:42.419Z,1.40
2019-01-14T22:41:09.939Z,1.30
2019-01-14T22:43:37.418Z,1.30
2019-01-14T22:46:04.933Z,1.20
2019-01-14T22:48:32.388Z,1.10
2019-01-14T22:50:59.838Z,1.00
2019-01-14T22:53:27.342Z,0.90
2019-01-14T22:55:54.795Z,0.90
2019-01-14T22:58:22.190Z,0.70
2019-01-14T23:01:14.735Z,0.70
2019-01-14T23:03:52.785Z,0.50
2019-01-14T23:06:20.747Z,0.60
2019-01-14T23:08:48.427Z,0.40
2019-01-14T23:11:15.821Z,0.40
2019-01-14T23:13:43.283Z,0.50
2019-01-14T23:16:10.704Z,0.40
2019-01-14T23:18:38.111Z,0.30
2019-01-14T23:21:05.649Z,0.40
2019-01-14T23:23:33.042Z,0.40
2019-01-14T23:26:00.444Z,0.60
2019-01-14T23:28:28.011Z,0.60
2019-01-14T23:30:55.411Z,0.50
2019-01-14T23:33:22.809Z,0.60
2019-01-14T23:35:50.246Z,0.60
2019-01-14T23:38:17.629Z,0.70
2019-01-14T23:40:44.933Z,0.80
2019-01-14T23:43:12.579Z,1.10
2019-01-14T23:45:39.971Z,1.30
2019-01-14T23:48:07.364Z,1.30
2019-01-14T23:50:35.173Z,1.30
2019-01-14T23:53:02.566Z,1.40
2019-01-14T23:55:29.971Z,1.40
2019-01-14T23:57:57.456Z,1.40
